createdAt,value
2023-03-23T15:58:11.527Z,99198.84
2023-03-23T16:01:22.373Z,99198.78
2023-03-23T16:04:24.632Z,99192.69
2023-03-23T16:07:26.513Z,99205.09
2023-03-23T16:10:29.889Z,99204.59
2023-03-23T16:13:31.712Z,99204.47
2023-03-23T16:16:42.353Z,99208.91
2023-03-23T16:19:44.247Z,99211.06
2023-03-23T16:22:46.742Z,99210.69
2023-03-23T16:25:49.644Z,99213.66
2023-03-23T16:28:53.275Z,99215.59
2023-03-23T16:31:57.584Z,99218.72
2023-03-23T16:34:59.602Z,99212.56
2023-03-23T16:38:07.024Z,99213.25
2023-03-23T16:41:10.854Z,99218.47
2023-03-23T16:44:12.893Z,99225.75
2023-03-23T16:47:14.753Z,99228.91
2023-03-23T16:50:18.505Z,99218.78
2023-03-23T16:53:21.713Z,99223.97
2023-03-23T16:56:23.675Z,99220.91
2023-03-23T16:59:29.035Z,99225.91
2023-03-23T17:02:31.042Z,99235.63
2023-03-23T17:05:35.262Z,99234.19
2023-03-23T17:08:37.137Z,99238.16
2023-03-23T17:11:38.996Z,99238.78
2023-03-23T17:14:40.937Z,99236.97
2023-03-23T17:17:43.037Z,99239.06
2023-03-23T17:20:45.279Z,99242.84
2023-03-23T17:23:47.176Z,99240.22
2023-03-23T17:26:52.027Z,99238.59
2023-03-23T17:29:53.891Z,99241.28
2023-03-23T17:32:56.074Z,99233.47
2023-03-23T17:35:58.944Z,99236.53
2023-03-23T17:39:00.860Z,99241.44
2023-03-23T17:42:04.103Z,99239.13
2023-03-23T17:45:08.108Z,99243.88
2023-03-23T17:48:10.072Z,99240.38
2023-03-23T17:51:12.156Z,99237.38
2023-03-23T17:54:14.090Z,99237.59
2023-03-23T17:57:16.171Z,99240.97
2023-03-23T18:00:18.642Z,99239.97
2023-03-23T18:03:20.986Z,99235.47
2023-03-23T18:06:22.957Z,99231.97
2023-03-23T18:09:25.977Z,99233.81
2023-03-23T18:12:28.204Z,99233.66
2023-03-23T18:15:31.105Z,99251.44
2023-03-23T18:18:33.599Z,99246.09
2023-03-23T18:21:35.446Z,99243.78
2023-03-23T18:24:37.276Z,99250.81
2023-03-23T18:27:39.219Z,99245.41
2023-03-23T18:30:41.145Z,99242.72
2023-03-23T18:33:46.829Z,99239.03
2023-03-23T18:36:48.772Z,99233.84
2023-03-23T18:39:50.813Z,99231.00
2023-03-23T18:42:52.688Z,99228.13
2023-03-23T18:45:57.344Z,99232.47
2023-03-23T18:48:59.150Z,99235.13
2023-03-23T18:52:01.333Z,99230.44
2023-03-23T18:55:03.361Z,99236.59
2023-03-23T18:58:05.143Z,99234.59
2023-03-23T19:01:10.545Z,99230.56
2023-03-23T19:04:13.674Z,99238.22
2023-03-23T19:07:17.236Z,99236.19
2023-03-23T19:10:20.961Z,99235.00
2023-03-23T19:13:22.790Z,99232.47
2023-03-23T19:16:24.671Z,99239.28
2023-03-23T19:19:27.059Z,99240.44
2023-03-23T19:22:29.069Z,99236.56
2023-03-23T19:25:30.949Z,99239.72
2023-03-23T19:29:09.698Z,99243.72
2023-03-23T19:31:56.590Z,99241.53
2023-03-23T19:34:59.223Z,99242.00
2023-03-23T19:38:01.408Z,99240.78
2023-03-23T19:41:05.799Z,99248.13
2023-03-23T19:44:09.686Z,99234.56
2023-03-23T19:47:12.409Z,99235.19
2023-03-23T19:50:14.605Z,99240.00
2023-03-23T19:53:17.959Z,99240.31
2023-03-23T19:56:21.834Z,99238.97
2023-03-23T19:59:23.779Z,99235.78
2023-03-23T20:02:25.746Z,99226.38
2023-03-23T20:05:27.975Z,99225.19
2023-03-23T20:08:31.331Z,99230.16
2023-03-23T20:11:34.534Z,99227.75
2023-03-23T20:14:38.241Z,99227.38
2023-03-23T20:17:40.202Z,99229.69
2023-03-23T20:20:42.032Z,99225.81
2023-03-23T20:23:46.369Z,99223.44
2023-03-23T20:26:48.222Z,99220.41
2023-03-23T20:29:52.323Z,99219.03
2023-03-23T20:32:59.320Z,99213.31
2023-03-23T20:36:04.893Z,99219.94
2023-03-23T20:39:10.758Z,99215.91
2023-03-23T20:42:12.926Z,99211.34
2023-03-23T20:45:16.228Z,99210.94
2023-03-23T20:48:18.094Z,99208.06
2023-03-23T20:51:21.058Z,99199.50
2023-03-23T20:54:25.320Z,99205.63
2023-03-23T20:57:29.951Z,99204.25
2023-03-23T21:00:34.125Z,99202.72
2023-03-23T21:03:41.504Z,99196.00
2023-03-23T21:06:45.265Z,99196.75
2023-03-23T21:09:50.211Z,99197.34
2023-03-23T21:12:52.088Z,99187.81
2023-03-23T21:15:54.290Z,99186.59
2023-03-23T21:18:56.813Z,99192.38
2023-03-23T21:22:03.682Z,99189.19
2023-03-23T21:25:07.967Z,99184.28
2023-03-23T21:28:10.447Z,99183.91
2023-03-23T21:31:13.777Z,99183.66
2023-03-23T21:34:18.740Z,99183.94
2023-03-23T21:37:21.160Z,99181.59
2023-03-23T21:40:23.060Z,99176.69
2023-03-23T21:43:29.103Z,99173.34
2023-03-23T21:46:31.792Z,99177.13
2023-03-23T21:49:33.892Z,99179.41
2023-03-23T21:52:36.199Z,99176.19
2023-03-23T21:55:38.340Z,99165.00
2023-03-23T21:58:43.161Z,99164.47
2023-03-23T22:01:45.016Z,99167.25
2023-03-23T22:04:46.978Z,99165.88
2023-03-23T22:07:49.397Z,99164.66
2023-03-23T22:11:00.487Z,99166.91
2023-03-23T22:14:04.672Z,99163.84
2023-03-23T22:17:07.471Z,99161.75
2023-03-23T22:20:13.454Z,99158.13
2023-03-23T22:23:15.612Z,99155.44
2023-03-23T22:26:17.791Z,99158.41
2023-03-23T22:29:23.086Z,99168.50
2023-03-23T22:32:25.028Z,99153.81
2023-03-23T22:35:28.022Z,99162.78
2023-03-23T22:38:29.714Z,99156.06
2023-03-23T22:41:36.898Z,99165.72
2023-03-23T22:44:38.838Z,99153.69
2023-03-23T22:47:40.678Z,99149.63
2023-03-23T22:50:42.488Z,99151.59
2023-03-23T22:53:45.493Z,99150.91
2023-03-23T22:56:47.357Z,99161.44
2023-03-23T22:59:50.009Z,99155.13
2023-03-23T23:02:52.095Z,99147.44
2023-03-23T23:05:55.562Z,99139.44
2023-03-23T23:08:57.403Z,99149.41
2023-03-23T23:11:59.298Z,99145.88
2023-03-23T23:15:05.984Z,99145.88
2023-03-23T23:18:07.853Z,99148.69
2023-03-23T23:21:14.985Z,99151.06
2023-03-23T23:24:17.243Z,99142.09
2023-03-23T23:27:19.375Z,99139.31
2023-03-23T23:30:23.698Z,99139.16
2023-03-23T23:33:27.725Z,99145.31
2023-03-23T23:36:31.996Z,99143.50
2023-03-23T23:39:40.056Z,99138.31
2023-03-23T23:42:43.320Z,99143.50
2023-03-23T23:45:45.257Z,99140.00
2023-03-23T23:48:47.598Z,99140.00
2023-03-23T23:51:51.959Z,99132.31
2023-03-23T23:54:56.226Z,99133.69
2023-03-23T23:57:58.094Z,99130.88
